Time,TemperatureF,DewpointF,PressureIn,WindDirection,WindDirectionDegrees,WindSpeedMPH,WindSpeedGustMPH,Humidity,HourlyPrecipIn,Conditions,Clouds,dailyrainin,SolarRadiationWatts/m^2,SoftwareType,DateUTC
2013-03-06 00:01:00,36.0,31.4,30.06,East,93,5.0,9.0,83,0.00,,OVC021,0.00,0.00,VWS V14.01,2013-03-06 05:01:00,
2013-03-06 00:11:00,36.0,31.4,30.06,East,97,4.0,4.0,83,0.00,,OVC046,0.00,0.00,VWS V14.01,2013-03-06 05:11:00,
2013-03-06 00:21:00,36.0,31.6,30.06,East,97,4.0,4.0,84,0.00,,OVC046,0.00,0.00,VWS V14.01,2013-03-06 05:21:00,
2013-03-06 00:31:00,36.0,31.4,30.06,East,84,6.0,12.0,83,0.00,,OVC046,0.00,0.00,VWS V14.01,2013-03-06 05:31:00,
2013-03-06 00:41:00,35.9,31.0,30.06,ENE,60,7.0,15.0,82,0.00,,OVC039,0.00,0.00,VWS V14.01,2013-03-06 05:41:00,
2013-03-06 00:51:00,35.8,30.9,30.06,NE,50,7.0,12.0,82,0.00,,OVC039,0.00,0.00,VWS V14.01,2013-03-06 05:51:00,
2013-03-06 01:01:00,35.8,30.9,30.07,NE,37,5.0,11.0,82,0.00,,OVC039,0.00,0.00,VWS V14.01,2013-03-06 06:01:00,
2013-03-06 01:11:00,35.6,31.0,30.07,East,89,5.0,11.0,83,0.00,,OVC039,0.00,0.00,VWS V14.01,2013-03-06 06:11:00,
2013-03-06 01:21:00,35.5,30.6,30.08,NE,44,10.0,10.0,82,0.00,,OVC039,0.00,0.00,VWS V14.01,2013-03-06 06:21:00,
2013-03-06 01:31:00,35.3,30.7,30.08,NE,50,9.0,14.0,83,0.00,,OVC039,0.00,0.00,VWS V14.01,2013-03-06 06:31:00,
2013-03-06 01:41:00,35.0,30.7,30.08,ENE,71,5.0,11.0,84,0.00,,OVC029,0.00,0.00,VWS V14.01,2013-03-06 06:41:00,
2013-03-06 01:51:00,34.9,30.9,30.08,ESE,106,7.0,11.0,85,0.00,,OVC029,0.00,0.00,VWS V14.01,2013-03-06 06:51:00,
2013-03-06 02:01:00,34.6,31.1,30.08,NE,39,8.0,10.0,87,0.00,,OVC029,0.00,0.00,VWS V14.01,2013-03-06 07:01:00,
2013-03-06 02:11:00,34.3,31.1,30.08,ENE,60,9.0,12.0,88,0.00,,OVC021,0.00,0.00,VWS V14.01,2013-03-06 07:11:00,
2013-03-06 02:21:00,34.1,31.2,30.08,ENE,63,13.0,13.0,89,0.00,,OVC021,0.00,0.00,VWS V14.01,2013-03-06 07:21:00,
2013-03-06 02:31:00,34.1,31.5,30.08,NE,46,10.0,13.0,90,0.00,,OVC021,0.00,0.00,VWS V14.01,2013-03-06 07:31:00,
2013-03-06 02:41:00,34.0,31.4,30.08,ENE,60,6.0,12.0,90,0.00,,OVC028,0.00,0.00,VWS V14.01,2013-03-06 07:41:00,
2013-03-06 02:51:00,33.8,31.2,30.08,NE,42,10.0,12.0,90,0.00,,OVC028,0.00,0.00,VWS V14.01,2013-03-06 07:51:00,
2013-03-06 03:01:00,33.7,31.4,30.07,ENE,75,7.0,13.0,91,0.00,,OVC028,0.00,0.00,VWS V14.01,2013-03-06 08:01:00,
2013-03-06 03:11:00,33.7,31.4,30.07,ENE,77,7.0,18.0,91,0.00,,OVC019,0.00,0.00,VWS V14.01,2013-03-06 08:11:00,
2013-03-06 03:21:00,33.5,31.2,30.07,East,94,6.0,14.0,91,0.00,,OVC019,0.00,0.00,VWS V14.01,2013-03-06 08:21:00,
2013-03-06 03:31:00,33.5,31.4,30.07,NE,49,9.0,17.0,92,0.00,,OVC019,0.00,0.00,VWS V14.01,2013-03-06 08:31:00,
2013-03-06 03:41:00,33.5,31.4,30.07,NE,53,9.0,15.0,92,0.00,,OVC024,0.00,0.00,VWS V14.01,2013-03-06 08:41:00,
2013-03-06 03:51:00,33.5,31.4,30.08,NE,44,5.0,12.0,92,0.00,,OVC024,0.00,0.00,VWS V14.01,2013-03-06 08:51:00,
2013-03-06 04:01:00,33.4,31.3,30.08,ENE,66,4.0,12.0,92,0.00,,OVC024,0.00,0.00,VWS V14.01,2013-03-06 09:01:00,
2013-03-06 04:11:00,33.4,31.6,30.08,ENE,77,10.0,11.0,93,0.00,,OVC014,0.00,0.00,VWS V14.01,2013-03-06 09:11:00,
2013-03-06 04:21:00,33.4,31.6,30.09,ENE,58,10.0,16.0,93,0.00,,OVC014,0.00,0.00,VWS V14.01,2013-03-06 09:21:00,
2013-03-06 04:31:00,33.4,31.6,30.09,NE,41,9.0,14.0,93,0.00,,OVC014,0.00,0.00,VWS V14.01,2013-03-06 09:31:00,
2013-03-06 04:41:00,33.5,31.7,30.09,East,85,3.0,10.0,93,0.00,,OVC008,0.00,0.00,VWS V14.01,2013-03-06 09:41:00,
2013-03-06 04:51:00,33.5,31.4,30.10,NE,56,5.0,10.0,92,0.00,,OVC008,0.00,0.00,VWS V14.01,2013-03-06 09:51:00,
2013-03-06 05:01:00,33.4,31.6,30.10,ENE,65,6.0,12.0,93,0.00,,OVC008,0.00,0.00,VWS V14.01,2013-03-06 10:01:00,
2013-03-06 05:11:00,33.2,31.4,30.10,NE,47,4.0,10.0,93,0.00,,OVC010,0.00,0.00,VWS V14.01,2013-03-06 10:11:00,
2013-03-06 05:21:00,33.2,31.7,30.11,NE,46,7.0,11.0,94,0.00,,OVC010,0.00,0.00,VWS V14.01,2013-03-06 10:21:00,
2013-03-06 05:31:00,33.1,31.6,30.11,ENE,60,4.0,10.0,94,0.01,,OVC010,0.01,0.00,VWS V14.01,2013-03-06 10:31:00,
2013-03-06 05:41:00,33.1,31.8,30.11,ENE,78,5.0,7.0,95,0.01,,OVC006,0.01,0.00,VWS V14.01,2013-03-06 10:41:00,
2013-03-06 05:51:00,33.1,31.8,30.11,NE,56,5.0,11.0,95,0.01,,OVC006,0.01,0.00,VWS V14.01,2013-03-06 10:51:00,
2013-03-06 06:01:00,33.1,31.8,30.11,ENE,57,4.0,10.0,95,0.01,,OVC006,0.01,0.00,VWS V14.01,2013-03-06 11:01:00,
2013-03-06 06:11:00,33.1,32.1,30.11,ENE,72,4.0,10.0,96,0.01,,OVC008,0.01,0.00,VWS V14.01,2013-03-06 11:11:00,
2013-03-06 06:21:00,33.1,32.1,30.11,East,79,4.0,12.0,96,0.01,,OVC008,0.01,0.00,VWS V14.01,2013-03-06 11:21:00,
2013-03-06 06:31:00,33.1,32.1,30.11,ENE,77,5.0,13.0,96,0.01,,OVC008,0.01,0.00,VWS V14.01,2013-03-06 11:31:00,
2013-03-06 06:41:00,32.9,31.9,30.11,ENE,70,5.0,13.0,96,0.00,,OVC008,0.01,0.00,VWS V14.01,2013-03-06 11:41:00,
2013-03-06 06:51:00,32.9,31.9,30.13,ENE,59,14.0,17.0,96,0.00,,OVC008,0.01,5.00,VWS V14.01,2013-03-06 11:51:00,
2013-03-06 07:11:00,33.2,32.2,30.13,ENE,58,4.0,15.0,96,0.00,,OVC008,0.01,14.00,VWS V14.01,2013-03-06 12:11:00,
2013-03-06 07:21:00,33.2,31.9,30.14,East,81,4.0,11.0,95,0.00,,OVC008,0.01,18.00,VWS V14.01,2013-03-06 12:21:00,
2013-03-06 07:31:00,33.5,32.0,30.14,ENE,68,7.0,12.0,94,0.00,,OVC008,0.01,25.00,VWS V14.01,2013-03-06 12:31:00,
2013-03-06 07:41:00,33.7,31.6,30.14,ENE,65,5.0,12.0,92,0.00,,OVC014,0.01,35.00,VWS V14.01,2013-03-06 12:41:00,
2013-03-06 07:51:00,33.8,31.2,30.15,ENE,60,17.0,17.0,90,0.00,,OVC014,0.01,54.00,VWS V14.01,2013-03-06 12:51:00,
2013-03-06 08:01:00,34.0,31.1,30.15,East,79,4.0,17.0,89,0.00,,OVC014,0.01,46.00,VWS V14.01,2013-03-06 13:01:00,
2013-03-06 08:11:00,34.0,30.5,30.15,NE,34,4.0,14.0,87,0.00,,OVC023,0.01,51.00,VWS V14.01,2013-03-06 13:11:00,
2013-03-06 08:21:00,34.1,30.1,30.16,East,95,3.0,13.0,85,0.00,,OVC023,0.01,53.00,VWS V14.01,2013-03-06 13:21:00,
2013-03-06 08:31:00,34.3,30.0,30.16,NE,48,4.0,14.0,84,0.00,,OVC023,0.01,40.00,VWS V14.01,2013-03-06 13:31:00,
2013-03-06 08:41:00,34.1,29.5,30.16,ENE,62,5.0,11.0,83,0.00,,OVC018,0.01,42.00,VWS V14.01,2013-03-06 13:41:00,
2013-03-06 08:51:00,34.3,29.7,30.16,ENE,70,3.0,19.0,83,0.00,,OVC018,0.01,56.00,VWS V14.01,2013-03-06 13:51:00,
2013-03-06 09:01:00,34.4,29.2,30.16,ENE,58,5.0,14.0,81,0.00,,OVC018,0.01,83.00,VWS V14.01,2013-03-06 14:01:00,
2013-03-06 09:11:00,34.7,29.2,30.16,East,94,3.0,10.0,80,0.00,,OVC018,0.01,65.00,VWS V14.01,2013-03-06 14:11:00,
2013-03-06 09:21:00,34.7,28.9,30.16,ENE,77,2.0,11.0,79,0.00,,OVC018,0.01,63.00,VWS V14.01,2013-03-06 14:21:00,
2013-03-06 09:31:00,34.7,28.5,30.16,ESE,104,6.0,13.0,78,0.00,,OVC018,0.01,62.00,VWS V14.01,2013-03-06 14:31:00,
2013-03-06 09:41:00,34.9,28.4,30.16,East,93,6.0,9.0,77,0.00,,OVC027,0.01,81.00,VWS V14.01,2013-03-06 14:41:00,
2013-03-06 09:51:00,35.2,28.4,30.16,NE,44,9.0,15.0,76,0.00,,OVC027,0.01,142.00,VWS V14.01,2013-03-06 14:51:00,
2013-03-06 10:01:00,35.3,28.2,30.16,SE,131,4.0,15.0,75,0.00,,OVC027,0.01,93.00,VWS V14.01,2013-03-06 15:01:00,
2013-03-06 10:11:00,35.3,27.5,30.16,NE,43,11.0,16.0,73,0.00,,OVC026,0.01,83.00,VWS V14.01,2013-03-06 15:11:00,
2013-03-06 10:21:00,35.2,27.8,30.16,East,89,9.0,17.0,74,0.00,,OVC026,0.01,134.00,VWS V14.01,2013-03-06 15:21:00,
2013-03-06 10:31:00,35.3,27.2,30.16,ESE,119,5.0,20.0,72,0.00,,OVC026,0.01,118.00,VWS V14.01,2013-03-06 15:31:00,
2013-03-06 10:41:00,35.5,27.0,30.16,NE,46,10.0,20.0,71,0.00,,OVC026,0.01,125.00,VWS V14.01,2013-03-06 15:41:00,
2013-03-06 10:51:00,35.5,26.7,30.16,NE,39,3.0,16.0,70,0.00,,OVC026,0.01,118.00,VWS V14.01,2013-03-06 15:51:00,
2013-03-06 11:01:00,35.3,26.5,30.16,NE,48,5.0,17.0,70,0.00,,OVC026,0.01,86.00,VWS V14.01,2013-03-06 16:01:00,
2013-03-06 11:11:00,35.5,26.7,30.16,ESE,117,10.0,16.0,70,0.00,,OVC026,0.01,234.00,VWS V14.01,2013-03-06 16:11:00,
2013-03-06 11:21:00,36.3,26.4,30.16,ENE,62,15.0,18.0,67,0.00,,OVC026,0.01,279.00,VWS V14.01,2013-03-06 16:21:00,
2013-03-06 11:31:00,36.3,26.4,30.15,NE,56,14.0,18.0,67,0.00,,OVC026,0.01,190.00,VWS V14.01,2013-03-06 16:31:00,
2013-03-06 11:41:00,36.2,27.0,30.15,NE,37,8.0,18.0,69,0.00,,OVC047,0.01,253.00,VWS V14.01,2013-03-06 16:41:00,
2013-03-06 11:51:00,36.0,26.8,30.15,ENE,67,16.0,20.0,69,0.00,,OVC047,0.01,125.00,VWS V14.01,2013-03-06 16:51:00,
2013-03-06 12:01:00,35.8,26.6,30.14,NE,49,7.0,18.0,69,0.00,,OVC047,0.01,158.00,VWS V14.01,2013-03-06 17:01:00,
2013-03-06 12:11:00,35.9,26.7,30.14,NE,55,17.0,21.0,69,0.00,,OVC044,0.01,146.00,VWS V14.01,2013-03-06 17:11:00,
2013-03-06 12:21:00,35.8,27.0,30.14,NE,44,16.0,21.0,70,0.00,,OVC044,0.01,155.00,VWS V14.01,2013-03-06 17:21:00,
2013-03-06 12:31:00,35.8,27.0,30.13,ENE,71,7.0,19.0,70,0.00,,OVC044,0.01,171.00,VWS V14.01,2013-03-06 17:31:00,
2013-03-06 12:41:00,35.9,27.4,30.13,NE,55,12.0,17.0,71,0.00,,OVC036,0.01,190.00,VWS V14.01,2013-03-06 17:41:00,
2013-03-06 12:51:00,35.5,28.4,30.13,ENE,64,10.0,20.0,75,0.01,,OVC036,0.02,183.00,VWS V14.01,2013-03-06 17:51:00,
2013-03-06 13:01:00,35.6,28.5,30.13,NE,56,11.0,17.0,75,0.01,,OVC036,0.02,160.00,VWS V14.01,2013-03-06 18:01:00,
2013-03-06 13:11:00,35.6,28.1,30.13,East,85,12.0,17.0,74,0.01,,OVC036,0.02,105.00,VWS V14.01,2013-03-06 18:11:00,
2013-03-06 13:21:00,35.5,28.4,30.13,NE,53,16.0,16.0,75,0.01,,OVC036,0.02,139.00,VWS V14.01,2013-03-06 18:21:00,
2013-03-06 13:31:00,35.5,28.7,30.13,ENE,60,9.0,16.0,76,0.01,,OVC036,0.02,227.00,VWS V14.01,2013-03-06 18:31:00,
2013-03-06 13:41:00,35.6,29.1,30.13,NE,50,7.0,15.0,77,0.01,,OVC031,0.02,309.00,VWS V14.01,2013-03-06 18:41:00,
2013-03-06 13:51:00,36.3,28.8,30.13,ENE,65,5.0,14.0,74,0.01,,OVC031,0.02,190.00,VWS V14.01,2013-03-06 18:51:00,
2013-03-06 14:01:00,36.5,29.0,30.13,NE,41,15.0,18.0,74,0.00,,OVC031,0.02,329.00,VWS V14.01,2013-03-06 19:01:00,
2013-03-06 14:11:00,36.6,29.1,30.13,ENE,76,4.0,20.0,74,0.00,,OVC028,0.02,246.00,VWS V14.01,2013-03-06 19:11:00,
2013-03-06 14:21:00,36.0,29.2,30.13,ESE,111,5.0,19.0,76,0.00,,OVC028,0.02,234.00,VWS V14.01,2013-03-06 19:21:00,
2013-03-06 14:31:00,35.3,30.4,30.14,ENE,60,10.0,16.0,82,0.00,,OVC028,0.02,239.00,VWS V14.01,2013-03-06 19:31:00,
2013-03-06 14:41:00,35.2,31.1,30.14,East,79,6.0,14.0,85,0.00,,OVC050,0.02,227.00,VWS V14.01,2013-03-06 19:41:00,
2013-03-06 14:51:00,35.5,31.1,30.14,NE,37,13.0,16.0,84,0.00,,OVC050,0.02,367.00,VWS V14.01,2013-03-06 19:51:00,
2013-03-06 15:01:00,34.6,30.3,30.14,ENE,59,8.0,17.0,84,0.00,,OVC050,0.02,125.00,VWS V14.01,2013-03-06 20:01:00,
2013-03-06 15:11:00,34.7,30.7,30.14,NE,48,10.0,14.0,85,0.00,,OVC050,0.02,229.00,VWS V14.01,2013-03-06 20:11:00,
2013-03-06 15:21:00,36.3,31.0,30.13,East,91,9.0,17.0,81,0.00,,OVC050,0.02,309.00,VWS V14.01,2013-03-06 20:21:00,
2013-03-06 15:31:00,36.3,30.4,30.14,NE,56,9.0,18.0,79,0.00,,OVC050,0.02,200.00,VWS V14.01,2013-03-06 20:31:00,
2013-03-06 15:41:00,36.0,28.5,30.14,NE,45,7.0,14.0,74,0.00,,BKN032,0.02,155.00,VWS V14.01,2013-03-06 20:41:00,
2013-03-06 15:51:00,36.0,27.9,30.13,ENE,64,10.0,19.0,72,0.00,,BKN032,0.02,107.00,VWS V14.01,2013-03-06 20:51:00,
2013-03-06 16:01:00,35.8,27.7,30.14,NE,43,10.0,18.0,72,0.00,,BKN032,0.02,67.00,VWS V14.01,2013-03-06 21:01:00,
2013-03-06 16:11:00,35.6,27.1,30.14,ENE,63,17.0,20.0,71,0.00,,BKN032,0.02,39.00,VWS V14.01,2013-03-06 21:11:00,
2013-03-06 16:21:00,33.4,28.8,30.15,ENE,65,6.0,19.0,83,0.00,,BKN032,0.02,56.00,VWS V14.01,2013-03-06 21:21:00,
2013-03-06 16:31:00,33.1,29.9,30.15,ENE,69,9.0,12.0,88,0.00,,BKN032,0.02,56.00,VWS V14.01,2013-03-06 21:31:00,
2013-03-06 16:41:00,33.5,29.5,30.15,ENE,68,6.0,13.0,85,0.01,,OVC047,0.03,67.00,VWS V14.01,2013-03-06 21:41:00,
2013-03-06 16:51:00,34.0,27.9,30.15,ENE,60,6.0,14.0,78,0.01,,OVC047,0.03,39.00,VWS V14.01,2013-03-06 21:51:00,
2013-03-06 17:01:00,34.3,26.9,30.15,ENE,65,2.0,14.0,74,0.01,,OVC047,0.03,23.00,VWS V14.01,2013-03-06 22:01:00,
2013-03-06 17:11:00,34.3,26.6,30.15,SE,142,11.0,16.0,73,0.01,,OVC050,0.03,11.00,VWS V14.01,2013-03-06 22:11:00,
2013-03-06 17:21:00,33.7,26.6,30.16,NE,35,6.0,13.0,75,0.01,,OVC050,0.03,5.00,VWS V14.01,2013-03-06 22:21:00,
2013-03-06 17:31:00,33.8,26.1,30.16,East,94,5.0,16.0,73,0.01,,OVC050,0.03,0.00,VWS V14.01,2013-03-06 22:31:00,
2013-03-06 17:41:00,34.0,25.6,30.16,NE,44,11.0,17.0,71,0.01,,OVC049,0.03,0.00,VWS V14.01,2013-03-06 22:41:00,
2013-03-06 17:51:00,34.0,24.9,30.16,NE,55,10.0,16.0,69,0.00,,OVC049,0.03,0.00,VWS V14.01,2013-03-06 22:51:00,
2013-03-06 18:01:00,33.8,24.7,30.16,NE,51,24.0,24.0,69,0.00,,OVC049,0.03,0.00,VWS V14.01,2013-03-06 23:01:00,
2013-03-06 18:11:00,33.8,24.4,30.16,East,86,6.0,24.0,68,0.00,,OVC045,0.03,0.00,VWS V14.01,2013-03-06 23:11:00,
2013-03-06 18:21:00,33.8,24.4,30.17,ENE,72,12.0,17.0,68,0.00,,OVC045,0.03,0.00,VWS V14.01,2013-03-06 23:21:00,
2013-03-06 18:31:00,33.8,25.1,30.18,NE,34,11.0,15.0,70,0.00,,OVC045,0.03,0.00,VWS V14.01,2013-03-06 23:31:00,
2013-03-06 18:41:00,33.5,26.1,30.18,NE,54,10.0,19.0,74,0.00,,OVC047,0.03,0.00,VWS V14.01,2013-03-06 23:41:00,
2013-03-06 18:51:00,33.1,26.0,30.19,NE,52,14.0,16.0,75,0.00,,OVC047,0.03,0.00,VWS V14.01,2013-03-06 23:51:00,
2013-03-06 19:01:00,32.9,26.2,30.18,ENE,73,10.0,17.0,76,0.00,,OVC047,0.03,0.00,VWS V14.01,2013-03-07 00:01:00,
2013-03-06 19:11:00,32.9,25.9,30.18,ENE,59,9.0,17.0,75,0.00,,OVC045,0.03,0.00,VWS V14.01,2013-03-07 00:11:00,
2013-03-06 19:21:00,32.8,25.8,30.18,NE,42,5.0,15.0,75,0.00,,OVC045,0.03,0.00,VWS V14.01,2013-03-07 00:21:00,
2013-03-06 19:31:00,32.9,25.5,30.18,NE,54,9.0,19.0,74,0.00,,OVC045,0.03,0.00,VWS V14.01,2013-03-07 00:31:00,
2013-03-06 19:41:00,32.8,25.1,30.18,NE,46,10.0,18.0,73,0.00,,OVC049,0.03,0.00,VWS V14.01,2013-03-07 00:41:00,
2013-03-06 19:51:00,32.8,25.1,30.17,ENE,66,13.0,15.0,73,0.00,,OVC049,0.03,0.00,VWS V14.01,2013-03-07 00:51:00,
2013-03-06 20:01:00,32.8,25.1,30.17,East,81,9.0,16.0,73,0.00,,OVC049,0.03,0.00,VWS V14.01,2013-03-07 01:01:00,
2013-03-06 20:11:00,32.7,25.3,30.17,NE,44,12.0,20.0,74,0.00,,OVC049,0.03,0.00,VWS V14.01,2013-03-07 01:11:00,
2013-03-06 20:21:00,32.4,25.4,30.17,ENE,57,10.0,20.0,75,0.00,,OVC049,0.03,0.00,VWS V14.01,2013-03-07 01:21:00,
2013-03-06 20:31:00,32.1,25.1,30.17,NE,36,8.0,18.0,75,0.00,,OVC049,0.03,0.00,VWS V14.01,2013-03-07 01:31:00,
2013-03-06 20:41:00,31.9,25.2,30.17,NE,45,8.0,18.0,76,0.00,,OVC047,0.03,0.00,VWS V14.01,2013-03-07 01:41:00,
2013-03-06 20:51:00,31.9,25.2,30.17,NE,56,5.0,19.0,76,0.00,,OVC047,0.03,0.00,VWS V14.01,2013-03-07 01:51:00,
2013-03-06 21:01:00,31.9,25.2,30.16,NE,39,4.0,18.0,76,0.00,,OVC047,0.03,0.00,VWS V14.01,2013-03-07 02:01:00,
2013-03-06 21:11:00,31.9,25.2,30.16,ENE,65,6.0,21.0,76,0.00,,OVC047,0.03,0.00,VWS V14.01,2013-03-07 02:11:00,
2013-03-06 21:21:00,31.9,25.2,30.16,NE,34,11.0,22.0,76,0.00,,OVC047,0.03,0.00,VWS V14.01,2013-03-07 02:21:00,
2013-03-06 21:31:00,31.8,25.4,30.16,NE,44,16.0,18.0,77,0.00,,OVC047,0.03,0.00,VWS V14.01,2013-03-07 02:31:00,
2013-03-06 21:41:00,31.6,25.5,30.16,East,91,6.0,19.0,78,0.00,,OVC048,0.03,0.00,VWS V14.01,2013-03-07 02:41:00,
2013-03-06 21:51:00,31.8,25.7,30.16,ENE,57,4.0,18.0,78,0.00,,OVC048,0.03,0.00,VWS V14.01,2013-03-07 02:51:00,
2013-03-06 22:01:00,31.6,25.9,30.16,ENE,78,11.0,17.0,79,0.00,,OVC048,0.03,0.00,VWS V14.01,2013-03-07 03:01:00,
2013-03-06 22:11:00,31.5,25.4,30.16,NE,44,13.0,22.0,78,0.00,,OVC030,0.03,0.00,VWS V14.01,2013-03-07 03:11:00,
2013-03-06 22:21:00,31.5,25.4,30.15,NE,54,6.0,20.0,78,0.00,,OVC030,0.03,0.00,VWS V14.01,2013-03-07 03:21:00,
2013-03-06 22:31:00,31.5,25.4,30.15,ENE,60,12.0,18.0,78,0.00,,OVC030,0.03,0.00,VWS V14.01,2013-03-07 03:31:00,
2013-03-06 22:41:00,31.5,25.1,30.15,ESE,103,6.0,20.0,77,0.00,,OVC026,0.03,0.00,VWS V14.01,2013-03-07 03:41:00,
2013-03-06 22:51:00,31.5,25.1,30.14,East,89,6.0,22.0,77,0.00,,OVC026,0.03,0.00,VWS V14.01,2013-03-07 03:51:00,
2013-03-06 23:01:00,31.5,24.8,30.14,East,86,10.0,16.0,76,0.00,,OVC026,0.03,0.00,VWS V14.01,2013-03-07 04:01:00,
2013-03-06 23:11:00,31.5,24.8,30.14,ENE,67,10.0,18.0,76,0.00,,OVC021,0.03,0.00,VWS V14.01,2013-03-07 04:11:00,
2013-03-06 23:21:00,31.3,24.6,30.13,East,79,15.0,15.0,76,0.00,,OVC021,0.03,0.00,VWS V14.01,2013-03-07 04:21:00,
2013-03-06 23:31:00,31.3,24.9,30.14,NE,55,12.0,19.0,77,0.00,,OVC021,0.03,0.00,VWS V14.01,2013-03-07 04:31:00,